Time;durP1;ratioP1;P1;durP2;ratioP2;P2;SDS_P1;SDS_P2;PMS_P1;PMS_P2;Temp;Humidity;BMP_temperature;BMP_pressure;BME280_temperature;BME280_humidity;BME280_pressure;Samples;Min_cycle;Max_cycle;Signal;HPM_P1;HPM_P2
2022/03/30 00:01:32;;;;;;;;;49.00;38.25;;;;;15.53;53.66;99749.88;4769096;29;45755;-80
2022/03/30 00:03:57;;;;;;;;;50.75;38.50;;;;;15.49;53.66;99750.31;4768779;29;45654;-80
2022/03/30 00:09:44;;;;;;;;;49.50;39.00;;;;;15.50;53.59;99746.66;4768602;29;45826;-79
2022/03/30 00:12:10;;;;;;;;;46.75;36.00;;;;;15.48;53.62;99746.03;4769050;29;45637;-79
2022/03/30 00:14:36;;;;;;;;;47.50;39.00;;;;;15.44;53.46;99737.59;4768813;29;45685;-79
2022/03/30 00:17:02;;;;;;;;;47.25;39.00;;;;;15.44;53.43;99732.31;4768642;29;45810;-79
2022/03/30 00:19:29;;;;;;;;;54.00;39.25;;;;;15.45;53.17;99733.13;4768854;29;45593;-78
2022/03/30 00:25:16;;;;;;;;;47.50;40.00;;;;;15.42;53.12;99734.28;4768327;29;46046;-79
2022/03/30 00:27:43;;;;;;;;;48.00;40.25;;;;;15.41;53.63;99727.34;4752060;29;47798;-79
2022/03/30 00:30:11;;;;;;;;;38.25;31.25;;;;;15.41;53.65;99731.81;4768722;29;45521;-78
2022/03/30 00:32:37;;;;;;;;;48.50;39.50;;;;;15.35;53.60;99717.44;4768483;29;45476;-79
2022/03/30 00:35:04;;;;;;;;;51.00;41.00;;;;;15.37;53.48;99727.84;4768448;29;45479;-78
2022/03/30 00:37:30;;;;;;;;;54.00;39.50;;;;;15.34;53.47;99717.59;4768317;29;46015;-81
2022/03/30 00:39:55;;;;;;;;;43.25;37.00;;;;;15.30;53.80;99713.63;4768627;29;45799;-78
2022/03/30 00:42:24;;;;;;;;;49.50;38.25;;;;;15.30;53.85;99717.09;4768674;29;45496;-79
2022/03/30 00:44:50;;;;;;;;;50.00;41.00;;;;;15.29;54.10;99717.25;4768569;29;45538;-79
2022/03/30 00:47:22;;;;;;;;;53.00;40.75;;;;;15.26;53.72;99715.78;4768354;29;46535;-79
2022/03/30 00:49:48;;;;;;;;;56.25;41.25;;;;;15.25;53.72;99710.66;4768423;29;45822;-80
2022/03/30 00:55:52;;;;;;;;;53.00;41.75;;;;;15.22;53.95;99700.44;4766554;29;45781;-79
2022/03/30 00:58:19;;;;;;;;;50.75;42.00;;;;;15.20;54.02;99702.41;4768471;29;46121;-79
2022/03/30 01:00:44;;;;;;;;;52.00;40.25;;;;;15.20;53.95;99695.31;4771165;29;46049;-79
2022/03/30 01:03:10;;;;;;;;;55.75;43.50;;;;;15.20;54.46;99694.47;4771506;29;45679;-79
2022/03/30 01:05:36;;;;;;;;;52.25;42.50;;;;;15.21;53.83;99699.59;4754998;29;48689;-79
2022/03/30 01:08:01;;;;;;;;;52.25;42.00;;;;;15.19;54.24;99695.47;4771444;29;45600;-80
2022/03/30 01:10:27;;;;;;;;;51.75;40.75;;;;;15.20;54.37;99686.56;4771433;29;45816;-79
2022/03/30 01:12:54;;;;;;;;;52.00;42.50;;;;;15.17;54.78;99673.72;4771612;29;45847;-79
2022/03/30 01:15:20;;;;;;;;;53.75;42.75;;;;;15.18;54.31;99677.97;4771164;29;45545;-80
2022/03/30 01:17:46;;;;;;;;;53.75;43.50;;;;;15.15;54.19;99676.50;4771394;29;45939;-79
2022/03/30 01:20:12;;;;;;;;;50.00;41.25;;;;;15.18;54.43;99683.25;4771388;29;45653;-79
2022/03/30 01:26:00;;;;;;;;;54.50;43.00;;;;;15.17;54.08;99668.44;4770963;29;45964;-80
2022/03/30 01:28:28;;;;;;;;;53.75;42.00;;;;;15.13;54.42;99663.47;4771895;29;46050;-79
2022/03/30 01:33:45;;;;;;;;;50.75;42.00;;;;;15.16;54.64;99661.50;4772518;29;45660;-79
2022/03/30 01:36:12;;;;;;;;;54.25;42.25;;;;;15.16;54.64;99650.94;4771353;29;45522;-79
2022/03/30 01:38:37;;;;;;;;;53.25;42.00;;;;;15.16;54.61;99654.41;4771181;29;46631;-79
2022/03/30 01:41:03;;;;;;;;;57.25;44.75;;;;;15.15;54.54;99650.13;4754493;29;45593;-79
2022/03/30 01:43:29;;;;;;;;;53.50;41.00;;;;;15.14;54.50;99645.81;4770984;29;45680;-79
2022/03/30 01:45:55;;;;;;;;;57.75;45.75;;;;;15.16;54.29;99646.50;4770866;29;46533;-79
2022/03/30 01:48:22;;;;;;;;;57.50;44.25;;;;;15.19;54.23;99647.97;4770854;29;45714;-79
2022/03/30 01:50:47;;;;;;;;;52.50;42.00;;;;;15.21;54.32;99648.63;4754492;29;45608;-79
2022/03/30 01:53:13;;;;;;;;;57.00;44.25;;;;;15.18;54.65;99646.31;4770702;29;45657;-79
2022/03/30 01:55:39;;;;;;;;;55.25;44.25;;;;;15.18;54.61;99643.66;4770197;29;45838;-79
2022/03/30 01:58:05;;;;;;;;;51.00;42.50;;;;;15.15;54.91;99639.56;4754192;29;47480;-79
2022/03/30 02:00:30;;;;;;;;;58.50;45.00;;;;;15.10;54.79;99634.78;4770647;29;45714;-78
2022/03/30 02:02:56;;;;;;;;;57.25;44.50;;;;;15.10;54.85;99624.22;4770653;29;45756;-81
2022/03/30 02:05:21;;;;;;;;;57.75;44.00;;;;;15.11;55.03;99635.59;4770441;29;46104;-80
2022/03/30 02:11:08;;;;;;;;;58.00;46.25;;;;;15.05;55.16;99630.97;4770170;29;45528;-78
2022/03/30 02:13:33;;;;;;;;;60.50;47.00;;;;;14.99;55.56;99621.88;4770623;29;45522;-80
2022/03/30 02:15:59;;;;;;;;;53.25;43.75;;;;;14.97;55.55;99623.84;4770402;29;45707;-80
2022/03/30 02:18:25;;;;;;;;;57.50;42.00;;;;;14.94;55.68;99618.91;4770620;29;45680;-79
2022/03/30 02:20:50;;;;;;;;;58.00;46.25;;;;;14.92;55.57;99618.22;4770742;29;45737;-80
2022/03/30 02:26:37;;;;;;;;;58.25;43.75;;;;;14.85;55.82;99605.84;4770039;29;46112;-80
2022/03/30 02:29:03;;;;;;;;;59.00;45.75;;;;;14.83;55.90;99607.81;4770374;29;45950;-80
2022/03/30 02:31:29;;;;;;;;;56.00;45.50;;;;;14.81;55.54;99609.78;4754009;29;45628;-80
2022/03/30 02:33:54;;;;;;;;;56.00;45.50;;;;;14.79;55.50;99602.03;4770306;29;45735;-80
2022/03/30 02:36:20;;;;;;;;;52.75;43.25;;;;;14.78;55.88;99595.13;4770158;29;45470;-80
2022/03/30 02:38:45;;;;;;;;;59.00;45.25;;;;;14.78;55.97;99600.41;4770184;29;45592;-80
2022/03/30 02:41:11;;;;;;;;;58.50;44.25;;;;;14.79;55.80;99595.97;4770232;29;45570;-80
2022/03/30 02:43:37;;;;;;;;;58.50;44.50;;;;;14.77;55.66;99601.38;4770193;29;45574;-81
2022/03/30 02:46:04;;;;;;;;;58.25;45.75;;;;;14.74;56.17;99588.50;4770078;29;46491;-80
2022/03/30 02:48:32;;;;;;;;;56.00;42.75;;;;;14.76;56.24;99594.44;4770258;29;45562;-80
2022/03/30 02:51:00;;;;;;;;;56.75;45.00;;;;;14.75;55.98;99584.06;4770224;29;45647;-79
2022/03/30 02:56:47;;;;;;;;;55.25;45.50;;;;;14.79;55.79;99593.31;4767991;29;45705;-80
2022/03/30 02:59:14;;;;;;;;;59.00;45.25;;;;;14.77;55.60;99585.56;4770030;29;46384;-79
2022/03/30 03:01:40;;;;;;;;;58.50;45.75;;;;;14.79;55.80;99588.03;4769827;29;46028;-80
2022/03/30 03:04:05;;;;;;;;;58.00;44.50;;;;;14.77;56.14;99588.19;4753544;29;45617;-80
2022/03/30 03:06:32;;;;;;;;;62.25;46.50;;;;;14.80;55.67;99587.03;4769670;29;46479;-80
2022/03/30 03:08:58;;;;;;;;;60.75;47.25;;;;;14.78;56.12;99584.56;4769824;29;46009;-79
2022/03/30 03:11:24;;;;;;;;;55.25;43.75;;;;;14.79;56.25;99583.56;4770059;29;45792;-79
2022/03/30 03:13:50;;;;;;;;;59.00;47.00;;;;;14.78;56.31;99589.84;4769867;29;45566;-80
2022/03/30 03:16:16;;;;;;;;;56.00;44.25;;;;;14.76;56.79;99585.72;4769589;29;45715;-80
2022/03/30 03:18:42;;;;;;;;;62.25;47.75;;;;;14.75;56.77;99584.88;4769721;29;46248;-79
2022/03/30 03:21:08;;;;;;;;;60.75;46.25;;;;;14.72;56.63;99585.22;4769592;29;45593;-79
2022/03/30 03:26:55;;;;;;;;;58.25;44.25;;;;;14.66;56.89;99583.22;4769261;29;46067;-79
2022/03/30 03:29:20;;;;;;;;;67.50;47.75;;;;;14.64;57.08;99566.72;4769670;29;46051;-80
2022/03/30 03:31:46;;;;;;;;;62.00;47.50;;;;;14.60;57.49;99565.41;4769355;29;45634;-80
2022/03/30 03:34:12;;;;;;;;;63.00;48.25;;;;;14.59;57.62;99561.94;4769370;29;45690;-81
2022/03/30 03:36:37;;;;;;;;;62.00;48.50;;;;;14.54;57.20;99558.97;4769185;29;46219;-79
2022/03/30 03:42:24;;;;;;;;;61.25;47.50;;;;;14.53;57.15;99564.38;4768981;29;45878;-80
2022/03/30 03:44:51;;;;;;;;;64.25;49.00;;;;;14.53;58.20;99567.03;4769468;29;45816;-79
2022/03/30 03:47:16;;;;;;;;;59.75;48.50;;;;;14.51;58.20;99561.94;4769110;29;46459;-80
2022/03/30 03:49:42;;;;;;;;;61.50;48.25;;;;;14.49;58.26;99568.31;4769174;29;45708;-80
2022/03/30 03:52:07;;;;;;;;;63.25;49.25;;;;;14.48;58.39;99558.75;4769195;29;45612;-80
2022/03/30 03:54:33;;;;;;;;;61.25;47.25;;;;;14.45;58.77;99562.56;4769264;29;45617;-81
2022/03/30 03:56:59;;;;;;;;;63.25;49.25;;;;;14.42;58.17;99557.59;4768720;29;45524;-80
2022/03/30 03:59:25;;;;;;;;;63.00;50.50;;;;;14.38;58.38;99551.00;4769102;29;46061;-80
2022/03/30 04:01:51;;;;;;;;;61.50;48.25;;;;;14.39;58.29;99552.66;4752406;29;45515;-79
2022/03/30 04:04:18;;;;;;;;;64.00;48.75;;;;;14.39;58.98;99555.28;4769075;29;45611;-80
2022/03/30 04:06:44;;;;;;;;;65.75;49.00;;;;;14.39;59.05;99559.72;4768849;29;46298;-80
2022/03/30 04:12:31;;;;;;;;;59.50;47.00;;;;;14.36;58.67;99555.56;4768619;29;45993;-79
2022/03/30 04:14:57;;;;;;;;;62.50;49.75;;;;;14.32;58.92;99553.41;4752605;29;45524;-80
2022/03/30 04:17:22;;;;;;;;;63.50;49.25;;;;;14.34;58.97;99560.19;4768865;29;46247;-79
2022/03/30 04:19:48;;;;;;;;;64.50;49.50;;;;;14.31;58.86;99549.94;4768704;29;45639;-80
2022/03/30 04:22:14;;;;;;;;;64.25;48.50;;;;;14.31;58.44;99552.56;4768725;29;45705;-80
2022/03/30 04:28:02;;;;;;;;;61.75;47.50;;;;;14.36;58.46;99552.13;4768385;29;45526;-79
2022/03/30 04:30:27;;;;;;;;;64.75;52.00;;;;;14.38;58.20;99555.44;4768507;29;45647;-79
2022/03/30 04:32:53;;;;;;;;;60.00;49.00;;;;;14.36;58.17;99545.03;4752107;29;45702;-79
2022/03/30 04:35:25;;;;;;;;;72.25;54.00;;;;;14.42;58.65;99544.41;4768590;29;45684;-79
2022/03/30 04:37:53;;;;;;;;;67.50;51.50;;;;;14.44;58.39;99545.09;4751969;29;46093;-79
2022/03/30 04:40:18;;;;;;;;;70.50;53.00;;;;;14.42;58.45;99540.94;4768363;29;45555;-80
2022/03/30 04:42:44;;;;;;;;;67.50;50.75;;;;;14.45;58.51;99538.84;4768297;29;45891;-80
2022/03/30 04:45:09;;;;;;;;;68.50;51.75;;;;;14.47;58.25;99531.59;4768433;29;45589;-81
2022/03/30 04:47:35;;;;;;;;;69.75;51.25;;;;;14.48;58.27;99530.59;4768369;29;45651;-80
2022/03/30 04:50:00;;;;;;;;;69.00;51.75;;;;;14.46;58.33;99521.22;4768371;29;46025;-82
2022/03/30 04:52:26;;;;;;;;;68.25;53.00;;;;;14.50;58.10;99530.44;4768245;29;45497;-80
2022/03/30 04:58:13;;;;;;;;;70.75;56.25;;;;;14.53;58.35;99522.22;4766067;29;45634;-80
2022/03/30 05:00:39;;;;;;;;;68.50;53.25;;;;;14.55;58.53;99526.34;4768449;29;45880;-79
2022/03/30 05:03:04;;;;;;;;;71.75;55.00;;;;;14.56;58.26;99529.81;4768080;29;45746;-79
2022/03/30 05:05:30;;;;;;;;;69.75;55.00;;;;;14.52;58.24;99516.13;4768395;29;45675;-79
2022/03/30 05:07:56;;;;;;;;;67.00;50.75;;;;;14.58;58.22;99519.91;4768058;29;45609;-80
2022/03/30 05:10:21;;;;;;;;;69.50;54.75;;;;;14.59;57.92;99513.66;4768207;29;45706;-79
2022/03/30 05:12:47;;;;;;;;;68.75;53.75;;;;;14.59;57.83;99514.50;4768049;29;45523;-80
2022/03/30 05:15:12;;;;;;;;;69.00;52.25;;;;;14.60;57.90;99512.69;4768196;29;45524;-80
2022/03/30 05:17:41;;;;;;;;;68.75;52.75;;;;;14.62;57.97;99510.72;4768002;29;45503;-80
2022/03/30 05:20:07;;;;;;;;;65.00;52.00;;;;;14.65;58.05;99519.13;4751612;29;48192;-82
2022/03/30 05:22:33;;;;;;;;;66.50;49.25;;;;;14.65;57.80;99516.47;4768252;29;45468;-81
2022/03/30 05:28:20;;;;;;;;;63.00;49.00;;;;;14.66;57.79;99515.50;4767668;29;45539;-81
2022/03/30 05:30:46;;;;;;;;;64.25;52.00;;;;;14.65;58.43;99515.66;4767879;29;46348;-80
2022/03/30 05:33:12;;;;;;;;;68.00;50.50;;;;;14.63;58.78;99518.44;4767688;29;45545;-81
2022/03/30 05:35:38;;;;;;;;;62.00;49.00;;;;;14.58;58.46;99517.28;4767988;29;45535;-79
2022/03/30 05:38:03;;;;;;;;;65.75;50.00;;;;;14.58;58.27;99514.66;4767737;29;45724;-81
2022/03/30 05:43:50;;;;;;;;;65.00;49.50;;;;;14.56;58.76;99519.28;4767659;29;45641;-80
2022/03/30 05:46:16;;;;;;;;;61.75;51.50;;;;;14.58;58.62;99519.91;4770410;29;45881;-81
2022/03/30 05:48:42;;;;;;;;;65.00;48.50;;;;;14.56;58.69;99521.91;4773392;29;46513;-80
2022/03/30 05:51:07;;;;;;;;;61.50;48.75;;;;;14.56;58.56;99522.72;4773952;29;45564;-80
2022/03/30 05:53:34;;;;;;;;;66.25;50.00;;;;;14.58;58.93;99518.09;4755856;29;45739;-80
2022/03/30 05:55:59;;;;;;;;;57.50;45.50;;;;;14.59;59.09;99530.31;4772912;29;45617;-80
2022/03/30 05:58:25;;;;;;;;;63.50;50.00;;;;;14.61;58.96;99525.72;4755220;29;47364;-80
2022/03/30 06:00:53;;;;;;;;;66.75;51.00;;;;;14.58;59.33;99520.75;4770505;29;46147;-80
2022/03/30 06:03:19;;;;;;;;;71.25;52.00;;;;;14.57;59.60;99516.47;4770364;29;45614;-79
2022/03/30 06:05:45;;;;;;;;;62.75;49.50;;;;;14.58;59.34;99522.56;4770683;29;45897;-80
2022/03/30 06:08:13;;;;;;;;;64.50;51.00;;;;;14.56;59.83;99519.28;4770465;29;46227;-80
2022/03/30 06:14:01;;;;;;;;;70.25;54.00;;;;;14.53;60.00;99535.38;4770492;29;46003;-79
2022/03/30 06:16:27;;;;;;;;;67.25;52.25;;;;;14.54;59.80;99531.78;4770827;29;45698;-80
2022/03/30 06:18:54;;;;;;;;;63.00;50.00;;;;;14.53;60.04;99535.38;4772866;29;46442;-79
2022/03/30 06:21:19;;;;;;;;;59.50;48.00;;;;;14.48;60.29;99525.34;4773289;29;46251;-76
2022/03/30 06:23:45;;;;;;;;;68.25;52.00;;;;;14.50;60.65;99538.34;4771616;29;45752;-77
2022/03/30 06:29:33;;;;;;;;;66.50;51.75;;;;;14.45;60.82;99533.56;4771568;29;45949;-78
2022/03/30 06:31:59;;;;;;;;;69.00;50.00;;;;;14.44;61.00;99531.09;4770488;29;45730;-77
2022/03/30 06:34:25;;;;;;;;;68.75;49.25;;;;;14.43;61.18;99535.53;4770540;29;45705;-78
2022/03/30 06:36:50;;;;;;;;;63.75;49.75;;;;;14.41;60.74;99539.31;4770565;29;45891;-77
2022/03/30 06:39:16;;;;;;;;;64.50;52.25;;;;;14.44;60.91;99546.91;4770204;29;45749;-76
2022/03/30 06:41:42;;;;;;;;;70.25;52.00;;;;;14.43;61.14;99540.81;4770250;29;45712;-77
2022/03/30 06:44:08;;;;;;;;;68.75;53.50;;;;;14.42;61.76;99551.50;4769903;29;45734;-77
2022/03/30 06:46:38;;;;;;;;;65.50;49.00;;;;;14.36;61.47;99539.75;4753542;29;45606;-77
2022/03/30 06:49:04;;;;;;;;;61.50;48.75;;;;;14.33;61.51;99545.34;4770150;29;46454;-77
2022/03/30 06:51:30;;;;;;;;;65.00;49.00;;;;;14.30;61.98;99541.22;4770258;29;46172;-78
2022/03/30 06:53:55;;;;;;;;;71.50;54.00;;;;;14.30;62.44;99548.31;4770916;29;45566;-77
2022/03/30 06:59:42;;;;;;;;;69.00;53.25;;;;;14.25;62.04;99547.97;4768387;29;45647;-80
2022/03/30 07:02:08;;;;;;;;;69.50;52.25;;;;;14.24;62.64;99544.50;4770535;29;45666;-82
2022/03/30 07:04:40;;;;;;;;;68.25;52.50;;;;;14.24;62.21;99543.69;4769834;29;45555;-78
2022/03/30 07:12:34;;;;;;;;;71.50;53.75;;;;;14.24;62.38;99548.94;4769729;29;46122;-80
2022/03/30 07:15:00;;;;;;;;;66.50;52.50;;;;;14.26;62.28;99549.59;4770088;29;45681;-78
2022/03/30 07:17:26;;;;;;;;;71.75;54.75;;;;;14.23;62.53;99547.28;4770538;29;45881;-85
2022/03/30 07:19:52;;;;;;;;;74.00;57.00;;;;;14.23;62.63;99548.13;4770584;29;46384;-82
2022/03/30 07:22:17;;;;;;;;;69.25;53.50;;;;;14.21;62.69;99546.59;4770416;29;45705;-78
2022/03/30 07:24:43;;;;;;;;;66.00;51.75;;;;;14.20;63.12;99550.22;4770171;29;45593;-85
2022/03/30 07:27:09;;;;;;;;;69.50;53.25;;;;;14.18;62.95;99542.50;4770911;29;45749;-83
2022/03/30 07:29:34;;;;;;;;;67.75;52.00;;;;;14.17;63.27;99545.28;4771664;29;45906;-85
2022/03/30 07:32:01;;;;;;;;;69.25;54.00;;;;;14.16;63.93;99549.72;4771102;29;45645;-83
2022/03/30 07:34:27;;;;;;;;;70.00;54.25;;;;;14.12;63.03;99544.94;4771710;29;45599;-86
2022/03/30 07:36:52;;;;;;;;;73.00;55.00;;;;;14.09;63.48;99532.88;4770432;29;45911;-81
2022/03/30 07:39:17;;;;;;;;;66.00;50.50;;;;;14.06;63.69;99540.28;4769958;29;45623;-85
2022/03/30 07:45:06;;;;;;;;;75.75;56.25;;;;;13.97;64.09;99536.81;4770334;29;45715;-81
2022/03/30 07:47:32;;;;;;;;;74.75;55.50;;;;;13.95;63.79;99535.28;4754138;29;45669;-84
2022/03/30 07:49:59;;;;;;;;;77.75;57.50;;;;;13.92;63.98;99539.09;4771011;29;46430;-83
2022/03/30 07:52:24;;;;;;;;;75.75;56.00;;;;;13.91;64.04;99537.44;4753330;29;47495;-78
2022/03/30 07:54:51;;;;;;;;;73.75;56.00;;;;;13.86;64.12;99540.53;4769345;29;45602;-77
2022/03/30 07:57:20;;;;;;;;;72.50;54.25;;;;;13.85;63.75;99545.94;4769490;29;45609;-78
2022/03/30 07:59:45;;;;;;;;;70.75;52.75;;;;;13.82;63.84;99533.06;4768931;29;46570;-77
2022/03/30 08:02:11;;;;;;;;;69.25;53.00;;;;;13.81;64.05;99547.25;4769081;29;45771;-77
2022/03/30 08:04:36;;;;;;;;;71.25;55.00;;;;;13.81;64.12;99544.63;4768987;29;45809;-76
2022/03/30 08:07:02;;;;;;;;;69.75;54.25;;;;;13.78;64.77;99535.22;4769328;29;45621;-77
2022/03/30 08:09:27;;;;;;;;;73.50;56.00;;;;;13.76;65.31;99539.00;4768799;29;45699;-76
2022/03/30 08:15:15;;;;;;;;;79.75;58.75;;;;;13.67;65.40;99542.53;4768769;29;46003;-76
2022/03/30 08:17:41;;;;;;;;;72.25;53.75;;;;;13.65;66.02;99555.88;4769059;29;45681;-77
2022/03/30 08:20:08;;;;;;;;;76.25;56.00;;;;;13.62;65.83;99556.16;4768843;29;46830;-77
2022/03/30 08:22:34;;;;;;;;;73.25;57.00;;;;;13.59;66.30;99545.13;4768705;29;46231;-76
2022/03/30 08:25:03;;;;;;;;;75.75;57.00;;;;;13.58;66.55;99541.66;4768481;29;45802;-77
2022/03/30 08:27:31;;;;;;;;;71.00;53.25;;;;;13.59;66.67;99542.50;4769087;29;45486;-76
2022/03/30 08:30:00;;;;;;;;;68.75;53.25;;;;;13.56;66.48;99543.63;4768988;29;46505;-77
2022/03/30 08:32:27;;;;;;;;;68.00;53.50;;;;;13.55;66.12;99539.31;4768763;29;46000;-77
2022/03/30 08:34:54;;;;;;;;;71.00;54.50;;;;;13.56;66.06;99540.16;4768737;29;45502;-77
2022/03/30 08:37:20;;;;;;;;;72.25;55.00;;;;;13.56;66.48;99540.16;4771490;29;45867;-77
2022/03/30 08:39:46;;;;;;;;;69.75;54.25;;;;;13.56;66.50;99540.16;4772143;29;45612;-77
2022/03/30 08:45:33;;;;;;;;;69.25;54.25;;;;;13.58;66.06;99536.41;4768138;29;45774;-77
2022/03/30 08:48:01;;;;;;;;;67.75;52.00;;;;;13.63;66.01;99543.84;4769147;29;45444;-76
2022/03/30 08:50:26;;;;;;;;;68.75;51.00;;;;;13.63;66.22;99535.94;4768631;29;46288;-77
2022/03/30 08:52:55;;;;;;;;;71.75;51.75;;;;;13.67;65.94;99540.72;4768520;29;45778;-77
2022/03/30 08:55:21;;;;;;;;;66.00;51.00;;;;;13.72;65.96;99542.91;4768454;29;45733;-76
2022/03/30 08:57:47;;;;;;;;;67.75;52.00;;;;;13.77;66.10;99544.06;4768647;29;45474;-78
2022/03/30 09:00:23;;;;;;;;;68.25;51.25;;;;;13.80;65.96;99542.97;4767793;29;45757;-78
2022/03/30 09:02:59;;;;;;;;;70.00;52.25;;;;;13.84;65.88;99545.13;4768102;29;45963;-78
2022/03/30 09:05:37;;;;;;;;;68.50;49.25;;;;;13.85;65.58;99541.50;4768307;29;45755;-76
2022/03/30 09:08:14;;;;;;;;;70.50;53.75;;;;;13.91;65.46;99545.31;4768982;29;45557;-78
2022/03/30 09:10:47;;;;;;;;;69.00;52.50;;;;;13.94;65.65;99533.63;4767870;29;45665;-81
2022/03/30 09:13:14;;;;;;;;;68.00;53.50;;;;;13.98;65.20;99543.69;4768345;29;46222;-80
2022/03/30 09:15:41;;;;;;;;;59.25;50.25;;;;;14.03;64.96;99549.34;4768325;29;46013;-79
2022/03/30 09:18:09;;;;;;;;;64.50;51.25;;;;;14.05;64.62;99544.72;4767685;29;45546;-81
2022/03/30 09:20:38;;;;;;;;;72.75;53.50;;;;;14.13;64.99;99543.97;4769157;29;46241;-82
2022/03/30 09:23:08;;;;;;;;;62.50;49.25;;;;;14.16;64.61;99541.81;4770643;29;47441;-77
2022/03/30 09:25:34;;;;;;;;;64.25;52.00;;;;;14.22;64.60;99540.38;4771101;29;45924;-80
2022/03/30 09:28:01;;;;;;;;;65.75;51.25;;;;;14.27;64.68;99540.72;4771093;29;45531;-76
2022/03/30 09:30:28;;;;;;;;;66.00;52.50;;;;;14.35;64.98;99539.94;4770898;29;45753;-78
2022/03/30 09:32:56;;;;;;;;;67.25;50.75;;;;;14.39;64.36;99530.75;4770716;29;46194;-77
2022/03/30 09:35:27;;;;;;;;;65.00;48.50;;;;;14.47;64.38;99536.03;4770815;29;45477;-77
2022/03/30 09:38:00;;;;;;;;;66.50;49.50;;;;;14.55;64.39;99539.53;4771294;29;45559;-80
2022/03/30 09:47:08;;;;;;;;;64.00;50.25;;;;;14.78;63.67;99534.47;4770465;29;45618;-77
2022/03/30 09:49:49;;;;;;;;;64.00;49.50;;;;;14.84;63.09;99527.72;4770969;29;45656;-79
2022/03/30 09:52:20;;;;;;;;;70.00;51.25;;;;;14.88;63.60;99539.59;4770823;29;46330;-77
2022/03/30 09:54:53;;;;;;;;;65.75;49.50;;;;;14.94;63.32;99541.59;4769979;29;46046;-79
2022/03/30 09:57:32;;;;;;;;;68.25;52.00;;;;;14.92;63.10;99535.63;4770205;29;45688;-78
2022/03/30 10:00:08;;;;;;;;;60.75;49.00;;;;;14.96;62.61;99537.78;4770041;29;45579;-78
2022/03/30 10:02:48;;;;;;;;;64.25;50.50;;;;;14.98;63.00;99532.34;4770188;29;46280;-79
2022/03/30 10:05:19;;;;;;;;;62.75;48.50;;;;;14.98;62.63;99540.28;4770512;29;46223;-79
2022/03/30 10:07:47;;;;;;;;;72.25;55.00;;;;;14.99;62.23;99523.47;4770271;29;45630;-78
2022/03/30 10:10:17;;;;;;;;;68.75;49.75;;;;;15.02;62.32;99523.94;4770570;29;45668;-77
2022/03/30 10:12:43;;;;;;;;;65.75;49.50;;;;;15.06;62.51;99524.47;4770022;29;45638;-78
2022/03/30 10:15:10;;;;;;;;;63.75;51.00;;;;;15.12;62.06;99532.53;4770121;29;45685;-80
2022/03/30 10:17:36;;;;;;;;;62.75;48.75;;;;;15.18;62.12;99530.22;4770402;29;45837;-77
2022/03/30 10:20:04;;;;;;;;;67.25;52.25;;;;;15.20;61.93;99518.50;4772969;29;45663;-78
2022/03/30 10:23:05;;;;;;;;;63.75;49.00;;;;;15.26;61.80;99523.13;4757282;29;47644;-79
2022/03/30 10:25:33;;;;;;;;;64.75;52.00;;;;;15.27;61.37;99522.16;4770094;29;46344;-78
2022/03/30 10:28:24;;;;;;;;;62.75;49.75;;;;;15.31;61.29;99520.00;4753651;29;46100;-78
2022/03/30 10:30:57;;;;;;;;;73.25;54.50;;;;;15.31;61.79;99512.06;4770073;29;45751;-77
2022/03/30 10:33:36;;;;;;;;;67.50;52.00;;;;;15.31;61.33;99512.91;4770267;29;46344;-78
2022/03/30 10:36:28;;;;;;;;;65.00;49.75;;;;;15.36;61.31;99520.31;4770168;29;45996;-80
2022/03/30 10:39:27;;;;;;;;;65.50;49.25;;;;;15.39;61.18;99518.16;4770448;29;45536;-80
2022/03/30 10:45:35;;;;;;;;;62.25;50.00;;;;;15.44;60.20;99510.56;4769335;29;45674;-78
2022/03/30 10:48:19;;;;;;;;;66.00;50.25;;;;;15.46;60.64;99502.50;4769819;29;46224;-78
2022/03/30 10:50:46;;;;;;;;;64.50;49.50;;;;;15.48;60.21;99498.69;4769941;29;45783;-79
2022/03/30 10:53:30;;;;;;;;;72.25;50.75;;;;;15.54;60.23;99494.59;4770226;29;45569;-77
2022/03/30 10:56:15;;;;;;;;;68.50;50.25;;;;;15.59;59.70;99496.72;4770103;29;45546;-77
2022/03/30 11:02:15;;;;;;;;;60.50;49.75;;;;;15.63;59.48;99485.66;4768642;29;46414;-76
2022/03/30 11:04:45;;;;;;;;;60.00;47.25;;;;;15.63;59.29;99480.38;4769990;29;45612;-79
2022/03/30 11:07:13;;;;;;;;;72.75;50.50;;;;;15.66;59.31;99474.75;4770196;29;46260;-80
2022/03/30 11:09:40;;;;;;;;;66.00;50.00;;;;;15.68;59.26;99471.94;4769924;29;45604;-78
2022/03/30 11:12:13;;;;;;;;;65.00;50.00;;;;;15.69;59.01;99478.88;4769613;29;45667;-76
2022/03/30 11:14:44;;;;;;;;;68.00;50.50;;;;;15.70;59.24;99478.72;4769967;29;45663;-76
2022/03/30 11:17:15;;;;;;;;;61.25;47.00;;;;;15.69;58.60;99473.59;4769615;29;47338;-79
2022/03/30 11:19:46;;;;;;;;;63.25;50.50;;;;;15.68;58.59;99475.41;4769898;29;46297;-80
2022/03/30 11:22:16;;;;;;;;;62.50;49.25;;;;;15.65;58.50;99475.75;4769766;29;45921;-79
2022/03/30 11:25:03;;;;;;;;;62.50;48.00;;;;;15.65;58.20;99474.94;4769654;29;45717;-81
2022/03/30 11:27:29;;;;;;;;;63.00;49.00;;;;;15.64;58.20;99466.19;4752931;29;48566;-80
2022/03/30 11:29:58;;;;;;;;;60.50;47.50;;;;;15.64;57.94;99462.72;4769582;29;46025;-77
2022/03/30 11:32:30;;;;;;;;;59.00;47.50;;;;;15.66;57.71;99469.47;4769543;29;45926;-80
2022/03/30 11:35:00;;;;;;;;;57.75;46.00;;;;;15.67;57.69;99457.09;4769818;29;45700;-77
2022/03/30 11:37:28;;;;;;;;;56.00;44.25;;;;;15.71;57.82;99455.78;4769589;29;46510;-82
2022/03/30 11:40:02;;;;;;;;;57.50;45.75;;;;;15.75;57.55;99449.97;4769518;29;46109;-82
2022/03/30 11:42:28;;;;;;;;;57.25;44.25;;;;;15.79;57.54;99445.16;4752689;29;45854;-81
2022/03/30 11:47:38;;;;;;;;;59.50;46.75;;;;;15.89;57.06;99441.34;4769352;29;46213;-76
2022/03/30 11:50:04;;;;;;;;;57.75;46.00;;;;;15.93;56.97;99437.34;4769314;29;45697;-76
2022/03/30 11:52:30;;;;;;;;;57.50;46.00;;;;;15.97;56.54;99429.91;4769274;29;45460;-77
2022/03/30 11:54:56;;;;;;;;;54.75;43.00;;;;;16.04;56.64;99435.31;4769394;29;45770;-80
2022/03/30 11:57:22;;;;;;;;;56.00;44.75;;;;;16.08;56.46;99421.59;4769020;29;45588;-79
2022/03/30 12:00:00;;;;;;;;;57.50;45.25;;;;;16.23;56.63;99434.91;4769248;29;45575;-78
2022/03/30 12:02:27;;;;;;;;;63.25;47.75;;;;;16.38;56.67;99427.84;4769017;29;45793;-77
2022/03/30 12:04:54;;;;;;;;;62.25;49.25;;;;;16.48;56.53;99427.63;4768769;29;46048;-77
2022/03/30 12:07:21;;;;;;;;;57.00;44.25;;;;;16.62;56.33;99426.91;4769073;29;45630;-77
2022/03/30 12:09:48;;;;;;;;;57.25;45.75;;;;;16.71;55.36;99423.19;4768902;29;45983;-79
2022/03/30 12:12:35;;;;;;;;;54.75;45.50;;;;;16.76;55.01;99424.31;4768753;29;45771;-79
2022/03/30 12:15:16;;;;;;;;;57.50;46.50;;;;;16.74;55.04;99410.44;4769014;29;45553;-82
2022/03/30 12:17:43;;;;;;;;;57.75;44.50;;;;;16.74;54.29;99407.78;4769898;29;45813;-77
2022/03/30 12:20:20;;;;;;;;;56.00;43.75;;;;;16.76;54.24;99412.91;4768835;29;46030;-79
2022/03/30 12:22:59;;;;;;;;;56.50;44.00;;;;;16.71;54.17;99412.63;4768846;29;45759;-80
2022/03/30 12:25:28;;;;;;;;;54.25;44.00;;;;;16.68;54.29;99416.44;4768860;29;45451;-79
2022/03/30 12:27:53;;;;;;;;;55.50;41.75;;;;;16.62;54.24;99403.94;4768545;29;46867;-79
2022/03/30 12:30:19;;;;;;;;;57.25;46.00;;;;;16.63;54.08;99394.16;4768545;29;45838;-80
2022/03/30 12:32:46;;;;;;;;;58.75;46.00;;;;;16.63;54.15;99397.63;4768567;29;45668;-81
2022/03/30 12:35:15;;;;;;;;;54.25;44.00;;;;;16.66;54.00;99394.66;4768672;29;45710;-80
2022/03/30 12:37:46;;;;;;;;;54.75;43.75;;;;;16.64;53.75;99393.16;4768433;29;46482;-81
2022/03/30 12:40:18;;;;;;;;;55.75;44.00;;;;;16.64;53.77;99388.69;4768375;29;46067;-80
2022/03/30 12:42:44;;;;;;;;;52.75;43.00;;;;;16.63;53.46;99384.41;4768283;29;45657;-80
2022/03/30 12:45:11;;;;;;;;;56.25;43.50;;;;;16.61;53.41;99383.78;4768388;29;45621;-82
2022/03/30 12:47:47;;;;;;;;;57.00;45.25;;;;;16.62;53.57;99382.78;4768414;29;45810;-77
2022/03/30 12:50:18;;;;;;;;;54.00;43.00;;;;;16.61;53.59;99372.38;4768459;29;46146;-79
2022/03/30 12:52:48;;;;;;;;;49.00;41.00;;;;;16.67;53.21;99376.94;4767829;29;45676;-79